^^
Your Local Weather - Clay, NY Station Historical Data
Daily Summary for July 15, 2017 Units:  English    Metric   Both
« Previous Day
Next Day »
Daily Weekly Monthly Yearly Custom
  High: Low: Average:
Temperature: 75.9 °F 62.7 °F 67.8 °F
Dew Point: 65.8 °F 60.4 °F 62.6 °F
Humidity: 94% 64% 84%
Wind Speed: 4.0mph 0.0mph 1mph
Wind Gust: 10.0mph - -
Wind- - West
Pressure: 29.93 in 29.88 in -
Precipitation: 0.01 in    
Historical Graphs
 
 
Tabular Data for July 15, 2017
Time Temperature Dew Point Pressure Wind Wind Speed Wind Gust Humidity Rainfall Rate (Hourly) solar
00:05 66.4 °F 64.3 °F 29.89 in Calm     93% 0.00 in 0 W/m2
00:12 66.3 °F 64.2 °F 29.89 in Calm     93% 0.00 in 0 W/m2
00:18 66.1 °F 64.0 °F 29.89 in Calm     93% 0.00 in 0 W/m2
00:23 66.0 °F 63.9 °F 29.89 in Calm     93% 0.00 in 0 W/m2
00:29 65.9 °F 63.8 °F 29.89 in Calm     93% 0.00 in 0 W/m2
00:35 65.6 °F 63.5 °F 29.89 in Calm     93% 0.00 in 0 W/m2
00:42 65.4 °F 63.3 °F 29.88 in Calm     93% 0.00 in 0 W/m2
00:48 65.1 °F 63.0 °F 29.88 in Calm     93% 0.00 in 0 W/m2
00:53 65.0 °F 63.2 °F 29.88 in Calm     94% 0.00 in 0 W/m2
00:59 64.9 °F 63.1 °F 29.88 in Calm     94% 0.00 in 0 W/m2
01:05 64.9 °F 63.1 °F 29.88 in Calm     94% 0.00 in 0 W/m2
01:12 65.0 °F 63.2 °F 29.88 in Calm     94% 0.00 in 0 W/m2
01:18 65.1 °F 63.3 °F 29.88 in Calm     94% 0.00 in 0 W/m2
01:24 65.2 °F 63.4 °F 29.88 in Calm     94% 0.00 in 0 W/m2
01:29 65.3 °F 63.5 °F 29.88 in Calm     94% 0.00 in 0 W/m2
01:35 65.2 °F 63.4 °F 29.88 in Calm     94% 0.00 in 0 W/m2
01:42 65.2 °F 63.4 °F 29.88 in Calm     94% 0.00 in 0 W/m2
01:48 65.1 °F 63.3 °F 29.88 in Calm     94% 0.00 in 0 W/m2
01:53 64.9 °F 63.1 °F 29.88 in Calm     94% 0.00 in 0 W/m2
01:59 64.7 °F 62.9 °F 29.88 in Calm     94% 0.00 in 0 W/m2
02:05 64.6 °F 62.8 °F 29.88 in Calm     94% 0.00 in 0 W/m2
02:12 64.7 °F 62.9 °F 29.88 in Calm     94% 0.00 in 0 W/m2
02:18 64.6 °F 62.8 °F 29.88 in Calm     94% 0.00 in 0 W/m2
02:23 64.5 °F 62.7 °F 29.88 in Calm     94% 0.00 in 0 W/m2
02:29 64.3 °F 62.5 °F 29.88 in Calm     94% 0.00 in 0 W/m2
02:35 64.1 °F 62.3 °F 29.88 in Calm     94% 0.00 in 0 W/m2
02:42 63.8 °F 62.0 °F 29.88 in Calm     94% 0.00 in 0 W/m2
02:48 63.7 °F 61.9 °F 29.88 in Calm     94% 0.00 in 0 W/m2
02:53 63.7 °F 61.9 °F 29.88 in Calm   1.0 mph 94% 0.00 in 0 W/m2
02:59 63.9 °F 62.1 °F 29.88 in Calm     94% 0.00 in 0 W/m2
03:06 64.2 °F 62.4 °F 29.88 in WNW 1.0 mph 2.0 mph 94% 0.00 in 0 W/m2
03:12 64.3 °F 62.5 °F 29.88 in WNW 1.0 mph 1.0 mph 94% 0.00 in 0 W/m2
03:18 64.3 °F 62.5 °F 29.88 in WNW 1.0 mph 4.0 mph 94% 0.00 in 0 W/m2
03:23 64.2 °F 62.4 °F 29.88 in WNW 1.0 mph 1.0 mph 94% 0.00 in 0 W/m2
03:29 64.1 °F 62.3 °F 29.88 in Calm     94% 0.00 in 0 W/m2
03:35 63.9 °F 62.1 °F 29.88 in Calm     94% 0.00 in 0 W/m2
03:42 63.7 °F 61.9 °F 29.88 in Calm     94% 0.00 in 0 W/m2
03:49 63.6 °F 61.8 °F 29.88 in Calm     94% 0.00 in 0 W/m2
03:55 63.4 °F 61.6 °F 29.88 in Calm     94% 0.00 in 0 W/m2
04:02 63.4 °F 61.6 °F 29.88 in Calm     94% 0.00 in 0 W/m2
04:08 63.2 °F 61.4 °F 29.88 in Calm     94% 0.00 in 0 W/m2
04:13 63.2 °F 61.4 °F 29.88 in Calm     94% 0.00 in 0 W/m2
04:19 63.2 °F 61.4 °F 29.88 in Calm     94% 0.00 in 0 W/m2
04:25 63.2 °F 61.4 °F 29.88 in WNW 1.0 mph 3.0 mph 94% 0.00 in 0 W/m2
04:32 63.2 °F 61.4 °F 29.88 in West 2.0 mph 2.0 mph 94% 0.00 in 0 W/m2
04:38 63.1 °F 61.3 °F 29.88 in WSW 1.0 mph 2.0 mph 94% 0.00 in 0 W/m2
04:43 63.1 °F 61.3 °F 29.88 in SW 2.0 mph 3.0 mph 94% 0.00 in 0 W/m2
04:49 63.0 °F 61.2 °F 29.88 in WSW 2.0 mph 3.0 mph 94% 0.00 in 0 W/m2
04:55 62.9 °F 61.1 °F 29.88 in WSW 2.0 mph 3.0 mph 94% 0.00 in 0 W/m2
05:02 62.8 °F 61.0 °F 29.88 in WSW 1.0 mph 2.0 mph 94% 0.00 in 0 W/m2
05:08 62.8 °F 61.0 °F 29.88 in SW 2.0 mph 4.0 mph 94% 0.00 in 0 W/m2
05:13 62.8 °F 61.0 °F 29.88 in SW 2.0 mph 3.0 mph 94% 0.00 in 0 W/m2
05:19 62.8 °F 61.0 °F 29.89 in SW 1.0 mph 1.0 mph 94% 0.00 in 0 W/m2
05:25 62.7 °F 60.9 °F 29.89 in WSW 2.0 mph 4.0 mph 94% 0.00 in 0 W/m2
05:32 62.8 °F 61.0 °F 29.89 in WSW 2.0 mph 3.0 mph 94% 0.00 in 0 W/m2
05:38 62.9 °F 61.1 °F 29.89 in WSW 2.0 mph 3.0 mph 94% 0.00 in 0 W/m2
05:43 62.9 °F 61.1 °F 29.89 in WSW 1.0 mph 3.0 mph 94% 0.00 in 0 W/m2
05:50 63.0 °F 60.9 °F 29.89 in WSW 2.0 mph 2.0 mph 93% 0.00 in 0 W/m2
05:55 63.0 °F 60.9 °F 29.89 in WSW 1.0 mph 2.0 mph 93% 0.00 in 5 W/m2
06:02 63.1 °F 61.0 °F 29.89 in SSW 1.0 mph 1.0 mph 93% 0.00 in 7 W/m2
06:08 63.1 °F 61.0 °F 29.90 in SSW 1.0 mph 2.0 mph 93% 0.00 in 9 W/m2
06:14 63.2 °F 61.1 °F 29.90 in WSW 2.0 mph 3.0 mph 93% 0.00 in 9 W/m2
06:19 63.2 °F 61.1 °F 29.90 in WSW 2.0 mph 3.0 mph 93% 0.00 in 12 W/m2
06:25 63.3 °F 60.9 °F 29.90 in SSW 1.0 mph 3.0 mph 92% 0.00 in 19 W/m2
06:32 63.4 °F 61.0 °F 29.90 in SW 1.0 mph 2.0 mph 92% 0.00 in 23 W/m2
06:38 63.5 °F 61.1 °F 29.90 in WSW 1.0 mph 2.0 mph 92% 0.00 in 49 W/m2
06:43 63.6 °F 61.2 °F 29.90 in WSW 1.0 mph 2.0 mph 92% 0.00 in 51 W/m2
06:49 63.7 °F 61.3 °F 29.91 in WSW 1.0 mph 1.0 mph 92% 0.00 in 35 W/m2
06:56 63.9 °F 61.5 °F 29.91 in WSW 1.0 mph 1.0 mph 92% 0.00 in 58 W/m2
07:02 64.1 °F 61.7 °F 29.91 in Calm   1.0 mph 92% 0.00 in 58 W/m2
07:08 64.1 °F 61.7 °F 29.91 in WSW 1.0 mph 3.0 mph 92% 0.00 in 40 W/m2
07:13 64.2 °F 61.8 °F 29.91 in WSW 1.0 mph 3.0 mph 92% 0.00 in 25 W/m2
07:19 64.2 °F 61.5 °F 29.91 in Calm     91% 0.00 in 23 W/m2
07:25 64.2 °F 61.5 °F 29.91 in Calm     91% 0.00 in 28 W/m2
07:32 64.2 °F 61.5 °F 29.91 in WSW 1.0 mph 5.0 mph 91% 0.00 in 30 W/m2
07:38 64.2 °F 61.5 °F 29.91 in WSW 2.0 mph 5.0 mph 91% 0.00 in 49 W/m2
07:43 64.3 °F 61.6 °F 29.91 in WSW 1.0 mph 3.0 mph 91% 0.00 in 39 W/m2
07:50 64.3 °F 61.6 °F 29.91 in WSW 2.0 mph 3.0 mph 91% 0.00 in 44 W/m2
07:55 64.5 °F 61.8 °F 29.91 in West 2.0 mph 3.0 mph 91% 0.00 in 65 W/m2
08:02 64.6 °F 61.9 °F 29.91 in WSW 1.0 mph 5.0 mph 91% 0.00 in 142 W/m2
08:08 64.8 °F 62.1 °F 29.91 in SW 2.0 mph 5.0 mph 91% 0.00 in 69 W/m2
08:14 64.9 °F 61.9 °F 29.91 in WSW 1.0 mph 3.0 mph 90% 0.00 in 146 W/m2
08:19 65.2 °F 62.5 °F 29.92 in WSW 1.0 mph 1.0 mph 91% 0.00 in 128 W/m2
08:26 65.2 °F 62.2 °F 29.92 in South 2.0 mph 5.0 mph 90% 0.00 in 151 W/m2
08:32 65.2 °F 62.2 °F 29.92 in SW 2.0 mph 4.0 mph 90% 0.00 in 104 W/m2
08:38 65.1 °F 61.8 °F 29.92 in SW 2.0 mph 4.0 mph 89% 0.00 in 77 W/m2
08:43 64.9 °F 61.6 °F 29.92 in West 3.0 mph 8.0 mph 89% 0.00 in 90 W/m2
08:49 65.0 °F 62.0 °F 29.92 in SW 2.0 mph 2.0 mph 90% 0.00 in 104 W/m2
08:55 65.1 °F 62.1 °F 29.93 in WSW 2.0 mph 6.0 mph 90% 0.00 in 90 W/m2
09:02 64.9 °F 61.9 °F 29.93 in WSW 2.0 mph 2.0 mph 90% 0.00 in 81 W/m2
09:08 64.9 °F 61.9 °F 29.92 in SW 2.0 mph 10.0 mph 90% 0.00 in 88 W/m2
09:13 64.9 °F 61.9 °F 29.93 in NNW 1.0 mph 4.0 mph 90% 0.00 in 67 W/m2
09:19 64.9 °F 61.9 °F 29.93 in West 2.0 mph 2.0 mph 90% 0.00 in 83 W/m2
09:25 65.0 °F 62.0 °F 29.93 in West 2.0 mph 4.0 mph 90% 0.00 in 86 W/m2
09:33 65.1 °F 62.1 °F 29.93 in SW 2.0 mph 6.0 mph 90% 0.00 in 109 W/m2
09:39 65.2 °F 62.2 °F 29.93 in SW 2.0 mph 2.0 mph 90% 0.00 in 181 W/m2
09:45 65.4 °F 62.1 °F 29.93 in SSW 1.0 mph 5.0 mph 89% 0.00 in 100 W/m2
09:51 65.6 °F 62.3 °F 29.93 in WNW 1.0 mph 2.0 mph 89% 0.00 in 139 W/m2
09:58 65.6 °F 62.3 °F 29.93 in West 1.0 mph 3.0 mph 89% 0.00 in 100 W/m2
10:03 65.5 °F 62.2 °F 29.93 in West 1.0 mph 2.0 mph 89% 0.00 in 111 W/m2
10:09 65.3 °F 62.3 °F 29.93 in SW 2.0 mph 2.0 mph 90% 0.00 in 229 W/m2
10:15 65.6 °F 62.9 °F 29.92 in SW 1.0 mph 6.0 mph 91% 0.00 in 251 W/m2
10:22 66.0 °F 63.3 °F 29.92 in West 2.0 mph 2.0 mph 91% 0.00 in 234 W/m2
10:28 66.2 °F 63.5 °F 29.92 in WSW 1.0 mph 5.0 mph 91% 0.00 in 220 W/m2
10:33 66.4 °F 63.4 °F 29.92 in WSW 1.0 mph 5.0 mph 90% 0.00 in 292 W/m2
10:39 66.4 °F 63.4 °F 29.93 in WSW 2.0 mph 2.0 mph 90% 0.00 in 271 W/m2
10:45 66.8 °F 63.5 °F 29.93 in WSW 1.0 mph 2.0 mph 89% 0.00 in 267 W/m2
10:51 67.3 °F 63.9 °F 29.92 in SW 1.0 mph 4.0 mph 89% 0.00 in 258 W/m2
10:58 67.6 °F 63.9 °F 29.92 in West 1.0 mph 4.0 mph 88% 0.00 in 290 W/m2
11:03 68.0 °F 64.3 °F 29.92 in West 1.0 mph 5.0 mph 88% 0.00 in 330 W/m2
11:09 68.4 °F 64.4 °F 29.92 in WNW 1.0 mph 1.0 mph 87% 0.00 in 297 W/m2
11:15 68.7 °F 64.3 °F 29.92 in WSW 1.0 mph 1.0 mph 86% 0.00 in 313 W/m2
11:22 69.2 °F 64.8 °F 29.92 in SW 1.0 mph 7.0 mph 86% 0.00 in 413 W/m2
11:28 69.4 °F 64.4 °F 29.92 in WSW 2.0 mph 7.0 mph 84% 0.00 in 341 W/m2
11:33 69.5 °F 64.8 °F 29.92 in NW 2.0 mph 4.0 mph 85% 0.00 in 387 W/m2
11:40 69.9 °F 65.2 °F 29.92 in SW 2.0 mph 4.0 mph 85% 0.00 in 364 W/m2
11:45 69.8 °F 64.4 °F 29.92 in SW 2.0 mph 4.0 mph 83% 0.00 in 392 W/m2
11:52 70.5 °F 65.8 °F 29.92 in WNW 1.0 mph 2.0 mph 85% 0.00 in 1215 W/m2
11:58 71.1 °F 64.6 °F 29.92 in WSW 2.0 mph 5.0 mph 80% 0.00 in 394 W/m2
12:03 71.0 °F 64.9 °F 29.92 in WSW 2.0 mph 6.0 mph 81% 0.00 in 376 W/m2
12:09 71.3 °F 64.4 °F 29.92 in WNW 3.0 mph 3.0 mph 79% 0.00 in 376 W/m2
12:15 72.5 °F 65.2 °F 29.92 in NW 2.0 mph 3.0 mph 78% 0.00 in 1060 W/m2
12:22 71.5 °F 63.5 °F 29.92 in SSW 2.0 mph 2.0 mph 76% 0.00 in 383 W/m2
12:28 72.2 °F 65.0 °F 29.92 in West 2.0 mph 3.0 mph 78% 0.00 in 376 W/m2
12:34 71.6 °F 64.4 °F 29.92 in SSW 2.0 mph 6.0 mph 78% 0.00 in 251 W/m2
12:39 70.7 °F 63.5 °F 29.92 in WSW 3.0 mph 3.0 mph 78% 0.00 in 84 W/m2
12:45 70.1 °F 64.3 °F 29.92 in NNW 2.0 mph 3.0 mph 82% 0.00 in 98 W/m2
12:52 69.8 °F 64.4 °F 29.92 in NNW 1.0 mph 1.0 mph 83% 0.00 in 211 W/m2
12:58 69.7 °F 64.3 °F 29.92 in NW 1.0 mph 7.0 mph 83% 0.00 in 100 W/m2
13:03 69.3 °F 63.9 °F 29.92 in NW 1.0 mph 4.0 mph 83% 0.00 in 139 W/m2
13:09 69.6 °F 64.2 °F 29.92 in NW 2.0 mph 2.0 mph 83% 0.00 in 232 W/m2
13:15 70.8 °F 64.7 °F 29.91 in NW 1.0 mph 2.0 mph 81% 0.00 in 559 W/m2
13:21 71.7 °F 65.2 °F 29.91 in WSW 2.0 mph 2.0 mph 80% 0.00 in 972 W/m2
13:28 72.6 °F 65.3 °F 29.91 in West 2.0 mph 2.0 mph 78% 0.00 in 958 W/m2
13:33 73.2 °F 64.8 °F 29.91 in SW 1.0 mph 2.0 mph 75% 0.00 in 1041 W/m2
13:39 73.3 °F 64.1 °F 29.91 in WSW 3.0 mph 7.0 mph 73% 0.00 in 1137 W/m2
13:45 73.2 °F 64.0 °F 29.91 in NW 4.0 mph 7.0 mph 73% 0.00 in 357 W/m2
13:52 73.6 °F 64.0 °F 29.91 in SSE 3.0 mph 7.0 mph 72% 0.00 in 766 W/m2
13:58 72.7 °F 63.5 °F 29.91 in WSW 4.0 mph 7.0 mph 73% 0.00 in 130 W/m2
14:03 72.1 °F 63.7 °F 29.91 in SSW 2.0 mph 4.0 mph 75% 0.00 in 111 W/m2
14:09 71.9 °F 63.9 °F 29.91 in NW 1.0 mph 2.0 mph 76% 0.00 in 239 W/m2
14:15 72.5 °F 65.2 °F 29.91 in NW 2.0 mph 2.0 mph 78% 0.00 in 1078 W/m2
14:22 74.4 °F 64.4 °F 29.91 in SW 3.0 mph 7.0 mph 71% 0.00 in 1113 W/m2
14:28 75.9 °F 65.8 °F 29.91 in NNW 3.0 mph 7.0 mph 71% 0.00 in 991 W/m2
14:33 75.0 °F 64.5 °F 29.91 in North 2.0 mph 3.0 mph 70% 0.00 in 387 W/m2
14:39 74.0 °F 63.2 °F 29.91 in NW 2.0 mph 2.0 mph 69% 0.00 in 216 W/m2
14:45 73.3 °F 63.7 °F 29.91 in NW 2.0 mph 3.0 mph 72% 0.00 in 179 W/m2
14:52 73.0 °F 63.8 °F 29.91 in NNW 1.0 mph 3.0 mph 73% 0.00 in 193 W/m2
14:58 72.8 °F 64.0 °F 29.91 in NNW 1.0 mph 3.0 mph 74% 0.00 in 153 W/m2
15:03 72.4 °F 63.3 °F 29.91 in WSW 1.0 mph 4.0 mph 73% 0.00 in 248 W/m2
15:09 72.3 °F 63.5 °F 29.91 in WSW 1.0 mph 2.0 mph 74% 0.00 in 202 W/m2
15:15 72.1 °F 63.7 °F 29.91 in WSW 1.0 mph 2.0 mph 75% 0.00 in 206 W/m2
15:22 72.1 °F 64.5 °F 29.91 in West 1.0 mph 1.0 mph 77% 0.00 in 281 W/m2
15:28 72.3 °F 64.3 °F 29.91 in West 1.0 mph 1.0 mph 76% 0.00 in 211 W/m2
15:33 72.5 °F 64.5 °F 29.91 in SW 1.0 mph 3.0 mph 76% 0.00 in 151 W/m2
15:40 72.5 °F 64.5 °F 29.91 in Calm     76% 0.00 in 137 W/m2
15:45 72.4 °F 64.0 °F 29.91 in Calm   1.0 mph 75% 0.00 in 151 W/m2
15:52 72.4 °F 64.4 °F 29.91 in Calm     76% 0.00 in 229 W/m2
15:58 74.5 °F 65.7 °F 29.91 in West 1.0 mph 2.0 mph 74% 0.00 in 299 W/m2
16:03 74.7 °F 63.9 °F 29.91 in NW 1.0 mph 1.0 mph 69% 0.00 in 294 W/m2
16:09 74.5 °F 62.8 °F 29.91 in NW 2.0 mph 2.0 mph 67% 0.00 in 253 W/m2
16:15 75.5 °F 64.6 °F 29.91 in NW 2.0 mph 2.0 mph 69% 0.00 in 302 W/m2
16:22 75.6 °F 63.9 °F 29.91 in NW 2.0 mph 6.0 mph 67% 0.00 in 863 W/m2
16:28 75.8 °F 64.1 °F 29.90 in WNW 3.0 mph 6.0 mph 67% 0.00 in 740 W/m2
16:33 74.9 °F 62.3 °F 29.90 in NW 3.0 mph 5.0 mph 65% 0.00 in 318 W/m2
16:39 74.9 °F 62.8 °F 29.90 in NW 3.0 mph 7.0 mph 66% 0.00 in 188 W/m2
16:45 75.3 °F 63.6 °F 29.90 in NNW 3.0 mph 7.0 mph 67% 0.00 in 253 W/m2
16:52 75.4 °F 62.8 °F 29.90 in WNW 3.0 mph 3.0 mph 65% 0.00 in 229 W/m2
16:58 75.5 °F 62.9 °F 29.90 in NW 3.0 mph 3.0 mph 65% 0.00 in 179 W/m2
17:03 75.3 °F 63.2 °F 29.90 in WNW 3.0 mph 4.0 mph 66% 0.00 in 178 W/m2
17:11 74.8 °F 61.8 °F 29.90 in ENE 2.0 mph 3.0 mph 64% 0.00 in 70 W/m2
17:18 74.7 °F 62.6 °F 29.90 in NNE 2.0 mph 3.0 mph 66% 0.00 in 77 W/m2
17:23 74.8 °F 62.7 °F 29.90 in NW 2.0 mph 4.0 mph 66% 0.00 in 53 W/m2
17:30 74.8 °F 62.7 °F 29.90 in NW 2.0 mph 2.0 mph 66% 0.00 in 51 W/m2
17:35 74.7 °F 61.7 °F 29.90 in North 2.0 mph 3.0 mph 64% 0.00 in 47 W/m2
17:42 74.6 °F 61.6 °F 29.89 in NNW 2.0 mph 2.0 mph 64% 0.00 in 84 W/m2
17:48 74.8 °F 62.2 °F 29.90 in West 1.0 mph 5.0 mph 65% 0.00 in 105 W/m2
17:53 74.9 °F 61.9 °F 29.89 in WSW 1.0 mph 2.0 mph 64% 0.00 in 114 W/m2
17:59 74.8 °F 61.8 °F 29.89 in NNW 1.0 mph 2.0 mph 64% 0.00 in 107 W/m2
18:05 74.5 °F 62.4 °F 29.89 in NW 2.0 mph 2.0 mph 66% 0.00 in 93 W/m2
18:12 74.3 °F 62.2 °F 29.89 in NW 1.0 mph 2.0 mph 66% 0.00 in 63 W/m2
18:18 74.0 °F 61.9 °F 29.89 in NW 1.0 mph 4.0 mph 66% 0.00 in 58 W/m2
18:24 73.8 °F 62.6 °F 29.89 in NW 1.0 mph 3.0 mph 68% 0.00 in 47 W/m2
18:29 74.0 °F 62.8 °F 29.89 in NNW 1.0 mph 1.0 mph 68% 0.00 in 40 W/m2
18:35 73.9 °F 62.7 °F 29.89 in NW 1.0 mph 1.0 mph 68% 0.00 in 39 W/m2
18:42 73.8 °F 62.2 °F 29.88 in NNW 1.0 mph 2.0 mph 67% 0.00 in 40 W/m2
18:48 73.7 °F 62.1 °F 29.89 in NNW 1.0 mph 2.0 mph 67% 0.00 in 37 W/m2
18:55 73.4 °F 62.2 °F 29.89 in NW 1.0 mph 1.0 mph 68% 0.00 in 69 W/m2
19:02 73.4 °F 62.6 °F 29.89 in Calm   2.0 mph 69% 0.00 in 65 W/m2
19:08 73.3 °F 62.1 °F 29.89 in NNW 1.0 mph 2.0 mph 68% 0.00 in 79 W/m2
19:15 73.3 °F 62.5 °F 29.89 in NNW 1.0 mph 2.0 mph 69% 0.00 in 79 W/m2
19:22 73.4 °F 62.6 °F 29.89 in NW 1.0 mph 2.0 mph 69% 0.00 in 56 W/m2
19:28 73.4 °F 62.6 °F 29.89 in NW 1.0 mph 2.0 mph 69% 0.00 in 49 W/m2
19:34 73.2 °F 62.4 °F 29.89 in NNW 1.0 mph 4.0 mph 69% 0.00 in 32 W/m2
19:39 72.9 °F 62.1 °F 29.89 in NNW 1.0 mph 1.0 mph 69% 0.00 in 26 W/m2
19:45 72.7 °F 62.3 °F 29.89 in Calm   1.0 mph 70% 0.00 in 25 W/m2
19:52 72.4 °F 62.5 °F 29.89 in Calm     71% 0.00 in 23 W/m2
19:58 72.2 °F 62.3 °F 29.89 in Calm     71% 0.00 in 21 W/m2
20:03 72.0 °F 62.5 °F 29.89 in Calm     72% 0.00 in 19 W/m2
20:09 71.7 °F 62.6 °F 29.89 in Calm     73% 0.00 in 16 W/m2
20:15 71.4 °F 62.3 °F 29.89 in Calm     73% 0.00 in 14 W/m2
20:21 71.0 °F 63.4 °F 29.89 in Calm     77% 0.00 in 12 W/m2
20:28 70.2 °F 63.4 °F 29.89 in Calm     79% 0.00 in 9 W/m2
20:33 69.5 °F 62.7 °F 29.89 in Calm     79% 0.00 in 7 W/m2
20:39 68.9 °F 62.5 °F 29.90 in Calm     80% 0.00 in 0 W/m2
20:45 68.3 °F 62.2 °F 29.89 in Calm     81% 0.00 in 0 W/m2
20:52 67.7 °F 62.3 °F 29.90 in Calm     83% 0.00 in 0 W/m2
20:58 67.3 °F 62.3 °F 29.90 in Calm     84% 0.00 in 0 W/m2
21:03 67.0 °F 62.0 °F 29.90 in Calm     84% 0.00 in 0 W/m2
21:09 66.7 °F 62.0 °F 29.90 in Calm     85% 0.00 in 0 W/m2
21:16 66.4 °F 62.1 °F 29.90 in Calm     86% 0.00 in 0 W/m2
21:22 66.1 °F 62.1 °F 29.90 in Calm     87% 0.00 in 0 W/m2
21:28 65.9 °F 61.9 °F 29.90 in Calm     87% 0.00 in 0 W/m2
21:33 65.6 °F 61.6 °F 29.90 in Calm     87% 0.00 in 0 W/m2
21:39 65.3 °F 61.7 °F 29.90 in Calm     88% 0.00 in 0 W/m2
21:45 65.1 °F 61.5 °F 29.90 in Calm     88% 0.00 in 0 W/m2
21:52 64.9 °F 61.6 °F 29.90 in Calm     89% 0.00 in 0 W/m2
21:58 64.7 °F 61.4 °F 29.90 in Calm     89% 0.00 in 0 W/m2
22:03 64.6 °F 61.3 °F 29.90 in Calm     89% 0.00 in 0 W/m2
22:09 64.4 °F 61.4 °F 29.90 in Calm     90% 0.00 in 0 W/m2
22:15 64.3 °F 61.3 °F 29.90 in Calm     90% 0.00 in 0 W/m2
22:22 64.0 °F 61.0 °F 29.90 in Calm     90% 0.00 in 0 W/m2
22:28 63.8 °F 60.8 °F 29.90 in Calm     90% 0.00 in 0 W/m2
22:33 63.7 °F 60.7 °F 29.90 in Calm     90% 0.00 in 0 W/m2
22:39 63.5 °F 60.5 °F 29.90 in Calm     90% 0.00 in 0 W/m2
22:45 63.4 °F 60.4 °F 29.90 in Calm     90% 0.00 in 0 W/m2
22:52 63.3 °F 60.6 °F 29.90 in Calm     91% 0.00 in 0 W/m2
22:58 63.3 °F 60.6 °F 29.90 in Calm     91% 0.00 in 0 W/m2
23:03 63.3 °F 60.6 °F 29.90 in Calm     91% 0.00 in 0 W/m2
23:10 63.4 °F 60.7 °F 29.90 in Calm     91% 0.00 in 0 W/m2
23:15 63.4 °F 61.0 °F 29.90 in Calm     92% 0.00 in 0 W/m2
23:22 63.3 °F 60.9 °F 29.90 in Calm     92% 0.00 in 0 W/m2
23:28 63.2 °F 60.8 °F 29.90 in Calm     92% 0.00 in 0 W/m2
23:33 63.2 °F 60.8 °F 29.90 in Calm     92% 0.00 in 0 W/m2
23:39 63.3 °F 60.9 °F 29.90 in Calm     92% 0.00 in 0 W/m2
23:45 63.4 °F 61.0 °F 29.90 in Calm     92% 0.00 in 0 W/m2
23:52 63.4 °F 61.0 °F 29.90 in Calm     92% 0.00 in 0 W/m2
23:58 63.4 °F 61.0 °F 29.90 in Calm     92% 0.00 in 0 W/m2
Country Meadow, Clay, NY, USA
Compliments of Weather Underground - 2 mb